aviador You're here:

PAGS Decoded Metar

GUSTAVUS in AK, USA
Report Time2018-06-23 05:56:00
UTC Time2018-06-23 06:02:29
Flight Rules mvfr MVFR
Wind150° at 04 kt
W.Decomp.*RWY 11: 3.8 kt HW 1.4 kt RCW
RWY 20: 1.4 kt HW 3.8 kt LCW
W.Rank150° ranks 7
Current wind is below 150° avg. (7.0)
Visibility9999 m
Phenomena:N/A
Clouds:Broken 018 Hf
Overcast 050 Hf
Expected CloudBase > 1,600 ft AGL from Temp-Dew spread
Ceiling1,800 ft
Temp12°C (ISA -3)
Dew Point08°C (77% RH)
AAT10.1°C
QNH1022 hPa
Density Alt-479 ft
Elevation30 ft
Report Wrong Elevation
Raw Report
PAGS 230556Z AUTO 15004KT 10SM BKN018 OVC050 12/08 A3018 RMK AO2
SLP221 T01170083 10156 20111 51001=

Extra information for PAGS:More info

Metar Taf Metar & Taf Last 4 Metars F.Rules Stats Wind Profile Meteogram Temp Stats Airport Information Weather charts Add Link Nearby VenuesMetar ALERT Operation Metar Decoded Social comments

AIRNAV info for PAGS